Alkin Kalkavan — TCOL6 — position and weather

sailwx.info

Track history (hours):
 
Tides and Currents Weather Stations Pressure Air Temp Water Temp Dewpoint Dewpoint Depression Visibility Wind Speed Wind Dir Waves Ship Positions

Alkin Kalkavan

Last reported at 2015-Feb-11 09:19 UTC. Time now 2015-Mar-04 18:54 UTC.
Position N 35°58' E 032°50'.
Warning: this ship's position is 21 days out of date.

Length 148 m; draft 6.1 m.

Type: Ship (hazmat cat B). MMSI: 271000905.

Date/timePositionNaut miles runAvg speedWind from/ knotsBaromVisibWave heightAir tempDewpointWater temp
2015-Feb-11 09:19N 35°58' E 032°50'199 5.7
2015-Feb-09 22:30N 32°58' E 034°33'1514.4
2015-Feb-09 21:27N 32°54' E 034°50'7 0.7
2015-Feb-09 11:33N 32°47' E 034°49'1817.7
2015-Feb-09 10:33N 32°30' E 034°43'1818.0
2015-Feb-09 09:32N 32°13' E 034°37'  
2015-Feb-02 07:33N 40°47' E 028°54'1414.6
2015-Feb-02 06:33N 40°45' E 029°12'1312.2
2015-Feb-02 05:31N 40°45' E 029°29'  
Track history (hours):
 
Tides and Currents Weather Stations Pressure Air Temp Water Temp Dewpoint Dewpoint Depression Visibility Wind Speed Wind Dir Waves Ship Positions

Alkin Kalkavan

Last reported at 2015-Feb-11 09:19 UTC. Time now 2015-Mar-04 18:54 UTC.
Position N 35°58' E 032°50'.
Warning: this ship's position is 21 days out of date.

Length 148 m; draft 6.1 m.

Type: Ship (hazmat cat B). MMSI: 271000905.

Date/timePositionNaut miles runAvg speedWind from/ knotsBaromVisibWave heightAir tempDewpointWater temp
2015-Feb-11 09:19N 35°58' E 032°50'199 5.7
2015-Feb-09 22:30N 32°58' E 034°33'1514.4
2015-Feb-09 21:27N 32°54' E 034°50'7 0.7
2015-Feb-09 11:33N 32°47' E 034°49'1817.7
2015-Feb-09 10:33N 32°30' E 034°43'1818.0
2015-Feb-09 09:32N 32°13' E 034°37'  
2015-Feb-02 07:33N 40°47' E 028°54'1414.6
2015-Feb-02 06:33N 40°45' E 029°12'1312.2
2015-Feb-02 05:31N 40°45' E 029°29'  

Dump ship's entire track history